Time;durP1;ratioP1;P1;durP2;ratioP2;P2;SDS_P1;SDS_P2;PMS_P1;PMS_P2;Temp;Humidity;BMP_temperature;BMP_pressure;BME280_temperature;BME280_humidity;BME280_pressure;Samples;Min_cycle;Max_cycle;Signal;HPM_P1;HPM_P2
2022/05/30 05:57:45;;;;;;;5.67;1.70;;;11.60;99.90;;;;;;5086901;27;20739;-49
2022/05/30 06:00:13;;;;;;;6.10;1.60;;;11.50;99.90;;;;;;5083967;28;20299;-50
2022/05/30 06:02:40;;;;;;;5.20;2.00;;;11.60;99.90;;;;;;5086436;28;20644;-50
2022/05/30 06:05:10;;;;;;;5.50;1.57;;;11.70;99.90;;;;;;5096720;28;20200;-51
2022/05/30 06:07:39;;;;;;;7.33;1.40;;;11.80;99.90;;;;;;5092413;28;20539;-52
2022/05/30 06:10:09;;;;;;;6.50;2.17;;;11.80;99.90;;;;;;5075678;28;20216;-52
2022/05/30 06:12:40;;;;;;;6.60;1.93;;;11.90;99.90;;;;;;5081482;28;20872;-51
2022/05/30 06:15:08;;;;;;;5.70;1.43;;;12.00;99.90;;;;;;5098169;28;20197;-50
2022/05/30 06:17:39;;;;;;;5.40;1.33;;;12.20;99.90;;;;;;5101187;28;20209;-50
2022/05/30 06:20:06;;;;;;;5.33;1.43;;;12.20;99.90;;;;;;5105363;28;20229;-50
2022/05/30 06:22:33;;;;;;;5.80;1.30;;;11.90;99.90;;;;;;5103897;28;20337;-52
2022/05/30 06:25:00;;;;;;;5.43;1.60;;;11.90;99.90;;;;;;5097042;27;20200;-52
2022/05/30 06:27:27;;;;;;;4.10;1.07;;;12.00;99.90;;;;;;5089279;28;20204;-51
2022/05/30 06:29:54;;;;;;;6.50;1.53;;;11.70;99.90;;;;;;5090902;28;20204;-51
2022/05/30 06:32:21;;;;;;;5.87;1.20;;;12.00;99.90;;;;;;5090507;28;20201;-50
2022/05/30 06:34:48;;;;;;;3.00;1.00;;;12.40;99.90;;;;;;5083664;28;20289;-54
2022/05/30 06:37:15;;;;;;;4.13;0.70;;;12.50;99.90;;;;;;5087794;28;20875;-50
2022/05/30 06:39:42;;;;;;;3.67;0.77;;;12.50;99.90;;;;;;5093469;28;20189;-50
2022/05/30 06:42:11;;;;;;;3.17;1.23;;;12.70;41.70;;;;;;5086910;28;20224;-49
2022/05/30 06:44:39;;;;;;;7.23;0.97;;;12.70;1.00;;;;;;5086546;28;20228;-51
2022/05/30 06:47:10;;;;;;;3.47;0.93;;;13.00;14.70;;;;;;5092341;28;20309;-50
2022/05/30 06:49:36;;;;;;;5.17;1.07;;;13.40;25.40;;;;;;5089338;28;20308;-50
2022/05/30 06:52:04;;;;;;;3.30;0.77;;;13.20;23.40;;;;;;5091657;28;20627;-50
2022/05/30 06:54:31;;;;;;;2.23;0.77;;;13.50;21.80;;;;;;5089895;28;20292;-49
2022/05/30 06:59:44;;;;;;;4.57;0.77;;;13.90;1.00;;;;;;5084991;28;20621;-50
2022/05/30 07:02:16;;;;;;;5.97;1.07;;;13.90;37.20;;;;;;5088135;28;20204;-50
2022/05/30 07:04:43;;;;;;;3.37;1.00;;;14.10;1.00;;;;;;5087814;28;20240;-51
2022/05/30 07:07:09;;;;;;;4.57;1.03;;;13.70;1.00;;;;;;5093099;28;20291;-49
2022/05/30 07:09:38;;;;;;;8.30;1.83;;;14.00;1.00;;;;;;5075378;28;20233;-50
2022/05/30 07:12:08;;;;;;;2.40;0.90;;;14.00;1.00;;;;;;5075042;28;20203;-52
2022/05/30 07:14:35;;;;;;;2.60;1.00;;;14.00;1.00;;;;;;5081464;28;20202;-49
2022/05/30 07:17:02;;;;;;;7.07;1.13;;;13.80;1.00;;;;;;5086279;28;20299;-50
2022/05/30 07:19:30;;;;;;;3.43;1.10;;;13.60;1.00;;;;;;5081079;28;20209;-50
2022/05/30 07:21:58;;;;;;;5.37;0.97;;;13.80;1.00;;;;;;5076098;28;20253;-50
2022/05/30 07:24:25;;;;;;;2.00;0.70;;;13.60;1.00;;;;;;5076060;28;20658;-51
2022/05/30 07:26:52;;;;;;;3.53;1.00;;;13.60;1.00;;;;;;5073937;28;20202;-50
2022/05/30 07:29:19;;;;;;;2.87;0.83;;;13.50;1.00;;;;;;5074750;28;20251;-50
2022/05/30 07:31:46;;;;;;;2.20;1.00;;;13.20;1.00;;;;;;5077775;28;20244;-50
2022/05/30 07:34:13;;;;;;;4.47;1.10;;;13.20;1.00;;;;;;5073454;28;20696;-49
2022/05/30 07:36:40;;;;;;;4.63;0.67;;;13.20;1.00;;;;;;5071728;28;20268;-50
2022/05/30 07:39:07;;;;;;;1.63;0.63;;;13.20;1.00;;;;;;5075503;28;20227;-48
2022/05/30 07:41:38;;;;;;;3.10;0.93;;;13.50;1.00;;;;;;5071528;28;20206;-48
2022/05/30 07:44:05;;;;;;;6.03;1.10;;;14.30;1.00;;;;;;5072685;28;20297;-49
2022/05/30 07:46:32;;;;;;;1.17;0.80;;;14.30;1.00;;;;;;5070935;28;20289;-49
2022/05/30 07:48:59;;;;;;;4.10;1.03;;;13.80;1.00;;;;;;5077328;28;20199;-50
2022/05/30 07:51:26;;;;;;;2.70;1.03;;;13.50;1.00;;;;;;5073599;28;20196;-50
2022/05/30 07:53:53;;;;;;;4.77;0.80;;;13.80;1.00;;;;;;5063191;28;20202;-52
2022/05/30 07:56:20;;;;;;;3.67;0.80;;;13.50;1.00;;;;;;5071932;28;20326;-51
2022/05/30 07:58:47;;;;;;;4.67;1.03;;;13.40;1.00;;;;;;5076959;28;20203;-55
2022/05/30 08:01:17;;;;;;;4.53;1.17;;;13.20;1.00;;;;;;5076711;28;20245;-52
2022/05/30 08:03:45;;;;;;;4.03;0.73;;;13.20;1.00;;;;;;5075385;28;20549;-51
2022/05/30 08:06:16;;;;;;;2.83;1.10;;;13.20;1.00;;;;;;5068311;28;20221;-49
2022/05/30 08:08:44;;;;;;;4.07;0.73;;;13.10;1.00;;;;;;5070307;28;20646;-52
2022/05/30 08:11:12;;;;;;;2.37;0.80;;;13.00;1.00;;;;;;5084464;28;20198;-51
2022/05/30 08:13:39;;;;;;;3.57;0.83;;;13.20;1.00;;;;;;5074160;28;20295;-51
2022/05/30 08:16:17;;;;;;;0.97;0.50;;;13.30;1.00;;;;;;5075030;28;20206;-50
2022/05/30 08:19:05;;;;;;;0.53;0.33;;;13.10;1.00;;;;;;5072089;28;20514;-52
2022/05/30 08:21:47;;;;;;;1.07;0.60;;;13.20;1.00;;;;;;5082732;28;20194;-50
2022/05/30 08:24:14;;;;;;;2.43;0.50;;;12.90;1.00;;;;;;5070989;28;20199;-52
2022/05/30 08:26:40;;;;;;;3.37;0.60;;;13.00;1.00;;;;;;5066766;28;20199;-51
2022/05/30 08:29:07;;;;;;;3.70;0.70;;;13.20;1.00;;;;;;5070344;28;20234;-50
2022/05/30 08:31:34;;;;;;;3.13;0.77;;;13.40;1.00;;;;;;5073209;28;20326;-51
2022/05/30 08:34:01;;;;;;;1.47;0.70;;;13.70;1.00;;;;;;5081564;28;20222;-51
2022/05/30 08:36:28;;;;;;;5.00;0.90;;;14.00;1.00;;;;;;5077828;28;20237;-51
2022/05/30 08:41:46;;;;;;;1.77;0.60;;;14.30;1.00;;;;;;5076961;28;20239;-51
2022/05/30 08:41:48;;;;;;;1.87;0.73;;;14.90;1.00;;;;;;5078736;28;20252;-49
2022/05/30 08:44:16;;;;;;;4.70;0.90;;;14.40;1.00;;;;;;5090435;28;20248;-50
2022/05/30 08:47:05;;;;;;;2.20;0.50;;;14.30;1.00;;;;;;5081252;28;20224;-50
2022/05/30 08:49:47;;;;;;;4.50;0.50;;;14.00;1.00;;;;;;5075553;28;20647;-52
2022/05/30 08:52:45;;;;;;;3.53;0.50;;;14.50;1.00;;;;;;5073811;28;20713;-51
2022/05/30 08:55:40;;;;;;;3.93;1.90;;;15.20;1.00;;;;;;5070707;28;20716;-51
2022/05/30 08:58:29;;;;;;;5.57;1.13;;;15.50;1.00;;;;;;5068601;28;20250;-51
2022/05/30 09:01:02;;;;;;;1.77;0.60;;;16.30;1.00;;;;;;5072684;28;20702;-51
2022/05/30 09:03:37;;;;;;;3.10;0.40;;;16.30;1.00;;;;;;5084229;28;20191;-50
2022/05/30 09:06:22;;;;;;;2.23;1.53;;;16.50;1.00;;;;;;5077567;28;20248;-51
2022/05/30 09:08:57;;;;;;;2.07;0.50;;;16.50;1.00;;;;;;5080127;28;20291;-53
2022/05/30 09:11:29;;;;;;;3.40;0.80;;;17.10;1.00;;;;;;5071138;28;20198;-51
2022/05/30 09:14:02;;;;;;;2.07;0.73;;;16.60;1.00;;;;;;5073159;28;20216;-49
2022/05/30 09:16:29;;;;;;;2.70;0.77;;;16.60;1.00;;;;;;5073017;28;20299;-50
2022/05/30 09:18:59;;;;;;;1.83;0.70;;;16.50;1.00;;;;;;5077468;28;20202;-51
2022/05/30 09:21:30;;;;;;;2.90;0.60;;;15.60;1.00;;;;;;5072863;28;21607;-51
2022/05/30 09:23:58;;;;;;;3.07;0.70;;;15.20;1.00;;;;;;5083628;28;20787;-51
2022/05/30 09:26:28;;;;;;;2.73;0.70;;;15.30;1.00;;;;;;5076754;28;20199;-50
2022/05/30 09:29:03;;;;;;;2.30;0.60;;;15.60;1.00;;;;;;5071343;28;20274;-51
2022/05/30 09:31:46;;;;;;;1.77;0.70;;;16.10;1.00;;;;;;5079821;28;20241;-50
2022/05/30 09:34:57;;;;;;;5.33;1.20;;;15.40;1.00;;;;;;5071360;28;20665;-49
2022/05/30 09:37:32;;;;;;;5.30;0.60;;;15.70;1.00;;;;;;5067523;28;20253;-50
2022/05/30 09:39:59;;;;;;;0.57;0.40;;;15.00;1.00;;;;;;5068430;28;20636;-50
2022/05/30 09:42:28;;;;;;;3.93;0.77;;;15.30;1.00;;;;;;5069793;28;20238;-50
2022/05/30 09:45:06;;;;;;;4.80;0.80;;;15.20;1.00;;;;;;5078599;28;20197;-51
2022/05/30 09:47:34;;;;;;;3.33;0.90;;;14.60;1.00;;;;;;5076077;28;20648;-50
2022/05/30 09:50:14;;;;;;;3.10;1.00;;;14.50;1.00;;;;;;5071116;28;20210;-51
2022/05/30 09:52:41;;;;;;;1.10;0.70;;;14.40;1.00;;;;;;5073116;28;20256;-50
2022/05/30 09:55:20;;;;;;;4.57;0.83;;;14.50;1.00;;;;;;5080084;28;20200;-52
2022/05/30 09:57:48;;;;;;;6.80;1.00;;;14.90;1.00;;;;;;5071794;28;20465;-50
2022/05/30 10:00:32;;;;;;;2.30;0.80;;;14.90;1.00;;;;;;5078428;28;20207;-50
2022/05/30 10:03:07;;;;;;;4.23;0.90;;;14.60;1.00;;;;;;5073854;28;20196;-49
2022/05/30 10:05:36;;;;;;;1.40;0.70;;;14.30;1.00;;;;;;5073059;28;20195;-53
2022/05/30 10:08:21;;;;;;;3.90;1.53;;;14.60;1.00;;;;;;5073992;28;20307;-50
2022/05/30 10:10:51;;;;;;;2.10;0.90;;;14.60;1.00;;;;;;5078169;28;20678;-51
2022/05/30 10:13:36;;;;;;;4.27;1.93;;;14.20;1.00;;;;;;5076229;28;20195;-50
2022/05/30 10:16:06;;;;;;;1.43;0.60;;;14.30;1.00;;;;;;5070206;28;20227;-49
2022/05/30 10:18:52;;;;;;;2.37;0.57;;;14.50;1.00;;;;;;5071704;28;20223;-49
2022/05/30 10:28:14;;;;;;;3.47;0.87;;;14.60;1.00;;;;;;5077802;28;20195;-50
2022/05/30 10:30:45;;;;;;;2.67;0.70;;;14.50;1.00;;;;;;5078279;28;20644;-50
2022/05/30 10:33:45;;;;;;;1.00;0.50;;;14.80;1.00;;;;;;5081922;28;20663;-50
2022/05/30 10:36:33;;;;;;;3.07;0.60;;;15.00;1.00;;;;;;5072818;28;20200;-51
2022/05/30 10:39:35;;;;;;;1.77;0.50;;;14.70;1.00;;;;;;5080175;28;20245;-50
2022/05/30 10:42:08;;;;;;;1.87;0.70;;;14.90;1.00;;;;;;5032204;28;20254;-50
2022/05/30 10:44:39;;;;;;;0.80;0.50;;;15.30;1.00;;;;;;5084000;28;20230;-53
2022/05/30 10:47:30;;;;;;;2.40;0.50;;;15.00;1.00;;;;;;5079163;28;20647;-50
2022/05/30 10:50:22;;;;;;;5.70;0.90;;;15.80;1.00;;;;;;5077370;28;20247;-51
2022/05/30 10:53:02;;;;;;;2.53;0.60;;;16.40;1.00;;;;;;5082423;28;20559;-51
2022/05/30 10:55:35;;;;;;;1.63;0.50;;;16.70;1.00;;;;;;5071444;28;20767;-51
2022/05/30 10:58:08;;;;;;;5.80;0.67;;;17.20;1.00;;;;;;5071384;28;20253;-51
2022/05/30 11:00:47;;;;;;;1.57;0.50;;;17.80;1.00;;;;;;5073557;28;20204;-51
2022/05/30 11:03:33;;;;;;;1.20;0.43;;;17.60;1.00;;;;;;5078662;28;20294;-51
2022/05/30 11:06:09;;;;;;;2.13;0.40;;;17.60;1.00;;;;;;5073984;28;20210;-51
2022/05/30 11:08:57;;;;;;;1.60;0.60;;;17.40;1.00;;;;;;5077576;28;20262;-50
2022/05/30 11:11:39;;;;;;;1.50;0.57;;;16.40;1.00;;;;;;5084807;28;20471;-50
2022/05/30 11:14:31;;;;;;;0.67;0.30;;;16.30;1.00;;;;;;5082872;28;20229;-51
2022/05/30 11:17:21;;;;;;;1.33;0.50;;;17.20;1.00;;;;;;5071762;28;20279;-49
2022/05/30 11:20:02;;;;;;;0.33;0.30;;;17.60;1.00;;;;;;5073575;28;20263;-50
2022/05/30 11:22:33;;;;;;;3.60;1.60;;;18.40;1.00;;;;;;5080500;28;20684;-49
2022/05/30 11:25:03;;;;;;;3.17;0.73;;;17.50;1.00;;;;;;5077491;28;20207;-51
2022/05/30 11:27:33;;;;;;;2.53;0.47;;;18.10;1.00;;;;;;5078080;28;20231;-51
2022/05/30 11:30:03;;;;;;;1.23;0.60;;;17.60;1.00;;;;;;5073107;28;20713;-51
2022/05/30 11:33:01;;;;;;;1.50;0.77;;;18.50;1.00;;;;;;5071352;28;20246;-50
2022/05/30 11:35:33;;;;;;;2.37;0.70;;;18.40;1.00;;;;;;5046007;28;20200;-55
2022/05/30 11:38:02;;;;;;;2.80;0.60;;;18.90;1.00;;;;;;5079087;28;20247;-50
2022/05/30 11:40:50;;;;;;;1.13;0.60;;;18.30;1.00;;;;;;5074591;28;20541;-50
2022/05/30 11:43:17;;;;;;;2.10;0.53;;;17.50;1.00;;;;;;5081964;28;20725;-50
2022/05/30 11:45:44;;;;;;;3.77;0.70;;;17.70;1.00;;;;;;5075645;28;20565;-49
2022/05/30 11:48:24;;;;;;;1.77;0.50;;;17.70;1.00;;;;;;5079245;28;20709;-50
2022/05/30 11:51:08;;;;;;;4.40;0.50;;;17.60;1.00;;;;;;5071692;28;20263;-50
2022/05/30 11:53:47;;;;;;;3.93;0.70;;;17.60;1.00;;;;;;5076077;28;20242;-49
2022/05/30 11:56:45;;;;;;;1.40;0.80;;;16.70;1.00;;;;;;5071754;28;20237;-50
2022/05/30 11:59:40;;;;;;;3.07;0.90;;;16.40;1.00;;;;;;5076259;28;20319;-49
2022/05/30 12:02:19;;;;;;;2.83;0.80;;;16.40;1.00;;;;;;5077674;28;20233;-49
2022/05/30 12:05:27;;;;;;;2.60;0.90;;;16.10;1.00;;;;;;5077658;28;20245;-50
2022/05/30 12:08:35;;;;;;;2.00;0.83;;;16.00;1.00;;;;;;5072598;28;20288;-50
2022/05/30 12:11:21;;;;;;;2.43;0.87;;;15.50;1.00;;;;;;5068371;28;20385;-51
2022/05/30 12:14:09;;;;;;;2.50;1.30;;;15.60;1.00;;;;;;5071980;28;20607;-49
2022/05/30 12:16:41;;;;;;;4.20;0.73;;;15.60;1.00;;;;;;5075638;28;20212;-52
2022/05/30 12:24:51;;;;;;;1.07;0.70;;;15.60;1.00;;;;;;5069162;28;20272;-50
2022/05/30 12:27:28;;;;;;;2.43;0.97;;;15.70;1.00;;;;;;5073133;28;20634;-50
2022/05/30 12:29:56;;;;;;;5.53;2.67;;;15.30;1.00;;;;;;5070271;28;20204;-51
2022/05/30 12:32:32;;;;;;;1.00;0.70;;;15.30;1.00;;;;;;5080813;28;20526;-50
2022/05/30 12:35:10;;;;;;;1.87;0.80;;;15.30;1.00;;;;;;5076268;28;20261;-50
2022/05/30 12:38:03;;;;;;;5.43;1.00;;;15.40;1.00;;;;;;5068145;28;20302;-49
2022/05/30 12:40:40;;;;;;;1.40;0.73;;;15.40;1.00;;;;;;5074466;28;20337;-50
2022/05/30 12:43:07;;;;;;;2.67;1.00;;;15.50;1.00;;;;;;5075169;28;20246;-49
2022/05/30 12:45:42;;;;;;;5.97;0.83;;;15.70;1.00;;;;;;5073977;28;20203;-49
2022/05/30 12:48:21;;;;;;;2.23;0.90;;;15.60;1.00;;;;;;5076954;28;20232;-50
2022/05/30 12:50:51;;;;;;;2.20;0.80;;;15.60;1.00;;;;;;5069521;28;20287;-50
2022/05/30 12:53:24;;;;;;;3.83;1.00;;;15.60;1.00;;;;;;5071284;28;20228;-50
2022/05/30 12:55:53;;;;;;;3.30;1.17;;;15.60;1.00;;;;;;5071554;28;20243;-51
2022/05/30 12:58:42;;;;;;;2.07;1.00;;;15.60;1.00;;;;;;5072083;28;20753;-48
2022/05/30 13:01:14;;;;;;;4.23;0.80;;;16.00;1.00;;;;;;5075669;28;20200;-48
2022/05/30 13:03:46;;;;;;;4.13;1.23;;;16.20;1.00;;;;;;5070256;28;20212;-49
2022/05/30 13:06:22;;;;;;;1.90;0.70;;;16.10;1.00;;;;;;5068842;28;20589;-49
2022/05/30 13:09:33;;;;;;;3.07;0.90;;;16.20;1.00;;;;;;5073635;28;20666;-48
2022/05/30 13:12:09;;;;;;;4.47;0.77;;;16.20;1.00;;;;;;5060450;28;20209;-49
2022/05/30 13:14:48;;;;;;;2.37;0.83;;;16.50;1.00;;;;;;5070199;28;20209;-51
2022/05/30 13:17:18;;;;;;;2.70;1.00;;;16.50;1.00;;;;;;5069020;28;20610;-48
2022/05/30 13:19:51;;;;;;;2.27;0.80;;;15.80;1.00;;;;;;5077381;28;20196;-49
2022/05/30 13:22:54;;;;;;;2.93;1.00;;;16.00;1.00;;;;;;5067091;28;20222;-50
2022/05/30 13:25:27;;;;;;;3.37;0.90;;;16.40;1.00;;;;;;5074053;28;20794;-50
2022/05/30 13:27:55;;;;;;;3.47;0.97;;;16.40;1.00;;;;;;5075087;28;20205;-49
2022/05/30 13:30:26;;;;;;;3.53;0.97;;;16.20;1.00;;;;;;5071234;28;20296;-51
2022/05/30 13:32:54;;;;;;;2.63;1.20;;;16.10;1.00;;;;;;5069582;28;20233;-50
2022/05/30 13:35:27;;;;;;;1.33;1.03;;;15.80;1.00;;;;;;5070631;28;20250;-50
2022/05/30 13:38:05;;;;;;;1.87;0.90;;;16.20;1.00;;;;;;5070979;28;20246;-51
2022/05/30 13:40:33;;;;;;;4.10;1.00;;;16.40;1.00;;;;;;5065331;28;20196;-50
2022/05/30 13:43:06;;;;;;;4.17;0.97;;;16.10;1.00;;;;;;5069960;28;20249;-52
2022/05/30 13:45:53;;;;;;;3.37;0.77;;;16.10;1.00;;;;;;5068214;28;20292;-50
2022/05/30 13:48:20;;;;;;;8.00;1.00;;;15.90;1.00;;;;;;5068524;28;20711;-50
2022/05/30 13:51:02;;;;;;;2.53;0.50;;;15.60;1.00;;;;;;5071457;28;20199;-51
2022/05/30 13:53:43;;;;;;;2.13;1.10;;;15.50;1.00;;;;;;5073159;28;20637;-49
2022/05/30 13:56:18;;;;;;;2.83;1.00;;;15.60;1.00;;;;;;5066381;28;20225;-51
2022/05/30 13:58:53;;;;;;;3.73;0.90;;;15.60;1.00;;;;;;5070973;28;20227;-50
2022/05/30 14:01:24;;;;;;;3.50;1.13;;;15.50;1.00;;;;;;5065648;28;20203;-50
2022/05/30 14:04:06;;;;;;;2.17;1.13;;;15.60;1.00;;;;;;5068544;28;20207;-49
2022/05/30 14:06:39;;;;;;;3.23;0.93;;;15.80;1.00;;;;;;5069197;28;20192;-50
2022/05/30 14:09:13;;;;;;;1.90;0.97;;;16.00;1.00;;;;;;5070238;28;20206;-51
2022/05/30 14:11:44;;;;;;;2.70;1.00;;;16.10;1.00;;;;;;5068860;28;20288;-49
2022/05/30 14:14:43;;;;;;;3.13;0.77;;;16.20;1.00;;;;;;5071897;28;20204;-50
2022/05/30 14:17:12;;;;;;;2.17;0.80;;;16.10;1.00;;;;;;5074952;28;20619;-51
2022/05/30 14:19:41;;;;;;;2.70;0.80;;;15.90;1.00;;;;;;5077828;28;20214;-50
2022/05/30 14:22:30;;;;;;;2.53;0.70;;;15.90;1.00;;;;;;5079735;28;20280;-47
2022/05/30 14:25:00;;;;;;;3.33;1.20;;;16.20;1.00;;;;;;5071854;28;20630;-48
2022/05/30 14:27:29;;;;;;;1.00;0.60;;;16.10;1.00;;;;;;5072779;28;20199;-47
2022/05/30 14:30:02;;;;;;;1.80;0.90;;;15.90;1.00;;;;;;5076398;28;20681;-48
2022/05/30 14:32:33;;;;;;;4.07;1.03;;;16.00;1.00;;;;;;5074982;28;20287;-49
2022/05/30 14:35:13;;;;;;;2.07;0.70;;;15.70;1.00;;;;;;5063428;28;20284;-51
2022/05/30 14:37:51;;;;;;;2.93;0.90;;;15.70;1.00;;;;;;5073301;28;20206;-50
2022/05/30 14:40:27;;;;;;;1.90;0.67;;;15.90;1.00;;;;;;5077188;28;20702;-51
2022/05/30 14:42:56;;;;;;;6.20;1.00;;;15.80;1.00;;;;;;5071447;28;20254;-50
2022/05/30 14:45:42;;;;;;;2.80;0.93;;;15.80;1.00;;;;;;5073486;28;20748;-50
2022/05/30 14:48:38;;;;;;;3.80;1.23;;;15.70;1.00;;;;;;5079572;28;21373;-50
2022/05/30 14:51:20;;;;;;;5.27;1.40;;;15.80;1.00;;;;;;5075441;28;20244;-49
2022/05/30 14:53:50;;;;;;;4.10;1.00;;;15.90;1.00;;;;;;5071998;28;20228;-49
2022/05/30 14:56:26;;;;;;;2.73;0.77;;;15.90;1.00;;;;;;5078924;28;20228;-50
2022/05/30 14:59:02;;;;;;;3.40;1.37;;;15.80;1.00;;;;;;5070435;28;20309;-50
2022/05/30 15:01:44;;;;;;;3.27;0.90;;;16.00;1.00;;;;;;5063315;28;20526;-50
2022/05/30 15:04:12;;;;;;;2.10;0.80;;;16.10;1.00;;;;;;5070573;28;20693;-51
2022/05/30 15:06:43;;;;;;;3.33;0.90;;;15.90;1.00;;;;;;5078460;28;20670;-57
2022/05/30 15:09:16;;;;;;;2.60;0.80;;;15.80;1.00;;;;;;5075275;28;20266;-51
2022/05/30 15:11:46;;;;;;;2.83;0.70;;;16.10;1.00;;;;;;5071630;28;20243;-51
2022/05/30 15:14:16;;;;;;;1.50;0.90;;;16.00;1.00;;;;;;5073492;28;20304;-50
2022/05/30 15:16:44;;;;;;;2.77;1.00;;;16.00;1.00;;;;;;5070686;28;20237;-50
2022/05/30 15:19:11;;;;;;;3.13;0.80;;;16.10;1.00;;;;;;5071991;28;20217;-51
2022/05/30 15:21:51;;;;;;;4.47;1.13;;;16.10;1.00;;;;;;5078677;28;20710;-53
2022/05/30 15:24:24;;;;;;;3.40;1.00;;;16.30;1.00;;;;;;5078638;28;20219;-50
2022/05/30 15:26:52;;;;;;;1.30;1.00;;;16.30;1.00;;;;;;5072738;28;20235;-49
2022/05/30 15:29:20;;;;;;;4.97;1.10;;;16.20;1.00;;;;;;5079985;28;20200;-50
2022/05/30 15:31:47;;;;;;;2.13;0.97;;;15.90;1.00;;;;;;5074430;28;20237;-56
2022/05/30 15:34:14;;;;;;;2.77;0.90;;;16.00;1.00;;;;;;5069178;28;20665;-51
2022/05/30 15:36:41;;;;;;;3.80;1.03;;;15.70;1.00;;;;;;5077909;28;20237;-50
2022/05/30 15:39:11;;;;;;;2.43;1.03;;;15.60;1.00;;;;;;5071843;28;20214;-50
2022/05/30 15:41:39;;;;;;;2.83;1.00;;;15.80;1.00;;;;;;5073413;28;20300;-50
2022/05/30 15:44:16;;;;;;;3.93;1.03;;;16.00;1.00;;;;;;5073446;28;20239;-50
2022/05/30 15:46:43;;;;;;;4.07;1.57;;;16.10;1.00;;;;;;5069518;28;20196;-48
2022/05/30 15:49:18;;;;;;;3.07;1.00;;;16.30;1.00;;;;;;5073865;28;20293;-48
2022/05/30 15:51:48;;;;;;;3.60;1.10;;;15.90;1.00;;;;;;5076996;28;20200;-50
2022/05/30 15:57:18;;;;;;;4.53;1.40;;;15.80;1.00;;;;;;5067092;28;20788;-50
2022/05/30 15:59:50;;;;;;;4.20;1.10;;;15.70;1.00;;;;;;5066321;28;20218;-50
2022/05/30 16:02:19;;;;;;;2.60;1.30;;;16.00;1.00;;;;;;5076833;28;20375;-49
2022/05/30 16:04:46;;;;;;;6.03;0.93;;;16.10;1.00;;;;;;5070249;28;20246;-50
2022/05/30 16:07:20;;;;;;;1.97;0.93;;;15.80;1.00;;;;;;5069691;28;20198;-50
2022/05/30 16:09:49;;;;;;;4.47;1.13;;;15.60;1.00;;;;;;5076525;28;20247;-49
2022/05/30 16:12:26;;;;;;;4.17;1.10;;;15.70;1.00;;;;;;5065389;28;20202;-50
2022/05/30 16:14:53;;;;;;;4.00;1.10;;;15.80;1.00;;;;;;5073907;28;20290;-50
2022/05/30 16:17:20;;;;;;;4.13;1.20;;;15.80;1.00;;;;;;5077002;28;20613;-49
2022/05/30 16:19:47;;;;;;;4.27;1.43;;;16.00;1.00;;;;;;5069992;28;20699;-50
2022/05/30 16:22:19;;;;;;;1.50;0.97;;;16.10;1.00;;;;;;5068707;28;20597;-50
2022/05/30 16:24:46;;;;;;;3.73;1.33;;;16.20;1.00;;;;;;5072469;28;20240;-51
2022/05/30 16:27:13;;;;;;;2.37;1.13;;;16.00;1.00;;;;;;5070619;28;20229;-51
2022/05/30 16:29:40;;;;;;;4.10;1.07;;;16.10;1.00;;;;;;5076009;28;20207;-49
2022/05/30 16:32:07;;;;;;;3.57;2.10;;;16.10;1.00;;;;;;5071120;28;20295;-49
2022/05/30 16:34:34;;;;;;;2.93;1.10;;;15.90;1.00;;;;;;5067873;28;20318;-52
2022/05/30 16:37:01;;;;;;;4.47;1.27;;;15.80;1.00;;;;;;5066778;28;20634;-50
2022/05/30 16:39:31;;;;;;;2.70;0.90;;;15.80;1.00;;;;;;5075678;28;20243;-49
2022/05/30 16:42:00;;;;;;;3.13;1.20;;;15.80;1.00;;;;;;5070280;28;20565;-49
2022/05/30 16:44:27;;;;;;;3.10;1.30;;;15.80;1.00;;;;;;5071191;28;20247;-50
2022/05/30 16:46:55;;;;;;;1.17;0.97;;;16.00;1.00;;;;;;5073730;28;20596;-49
2022/05/30 16:49:27;;;;;;;3.40;1.10;;;16.10;1.00;;;;;;5064844;28;20700;-49
2022/05/30 16:51:54;;;;;;;2.87;0.80;;;16.30;1.00;;;;;;5073651;28;20366;-49
2022/05/30 16:54:20;;;;;;;2.30;1.13;;;16.10;1.00;;;;;;5059543;28;20312;-49
2022/05/30 16:56:49;;;;;;;2.17;1.20;;;16.00;1.00;;;;;;5063989;28;20668;-50
2022/05/30 16:59:20;;;;;;;4.03;0.93;;;15.70;1.00;;;;;;5063789;28;20215;-50
2022/05/30 17:01:46;;;;;;;4.10;1.30;;;15.60;1.00;;;;;;5074041;28;20820;-50
2022/05/30 17:04:13;;;;;;;2.80;1.07;;;15.80;1.00;;;;;;5069808;28;20224;-51
2022/05/30 17:06:40;;;;;;;2.83;1.10;;;15.90;1.00;;;;;;5068793;28;20750;-50
2022/05/30 17:09:16;;;;;;;3.90;1.70;;;16.00;1.00;;;;;;5072976;28;20675;-50
2022/05/30 17:11:43;;;;;;;3.93;1.33;;;16.20;1.00;;;;;;5069192;28;20291;-49
2022/05/30 17:14:13;;;;;;;2.57;0.80;;;15.90;1.00;;;;;;5069724;28;20730;-50
2022/05/30 17:16:42;;;;;;;2.40;1.00;;;15.90;1.00;;;;;;5074692;28;20461;-55
2022/05/30 17:19:16;;;;;;;2.60;1.00;;;15.90;1.00;;;;;;5071160;28;20213;-55
2022/05/30 17:21:45;;;;;;;3.00;1.30;;;16.10;1.00;;;;;;4428897;28;10001872;-55
2022/05/30 17:24:13;;;;;;;4.80;1.30;;;16.10;1.00;;;;;;5062928;28;20417;-55
2022/05/30 17:29:34;;;;;;;2.83;0.97;;;16.10;1.00;;;;;;5063690;28;20366;-55
2022/05/30 17:32:04;;;;;;;2.87;1.10;;;16.10;1.00;;;;;;5074078;28;20204;-55
2022/05/30 17:34:31;;;;;;;1.23;0.70;;;15.80;1.00;;;;;;5067294;28;20213;-54
2022/05/30 17:36:59;;;;;;;2.53;0.80;;;15.70;1.00;;;;;;5064753;28;20610;-55
2022/05/30 17:39:29;;;;;;;3.40;1.10;;;15.90;1.00;;;;;;5066770;28;20419;-55
2022/05/30 17:41:58;;;;;;;3.17;1.20;;;15.80;1.00;;;;;;5062460;28;20196;-54
2022/05/30 17:44:26;;;;;;;3.70;0.93;;;15.60;1.00;;;;;;5068260;28;20202;-55
2022/05/30 17:47:15;;;;;;;2.93;0.90;;;15.70;1.00;;;;;;5067203;28;20226;-55
2022/05/30 17:50:06;;;;;;;3.17;1.00;;;15.80;1.00;;;;;;5064959;28;20210;-56
2022/05/30 17:52:44;;;;;;;3.20;0.90;;;15.80;1.00;;;;;;5066815;28;20212;-55
2022/05/30 17:55:13;;;;;;;3.07;0.87;;;16.00;1.00;;;;;;5063457;28;20908;-55
2022/05/30 17:57:41;;;;;;;1.43;0.73;;;16.00;1.00;;;;;;5063544;28;20600;-55
2022/05/30 18:00:18;;;;;;;1.63;0.87;;;15.70;1.00;;;;;;5064175;28;20659;-55
2022/05/30 18:02:45;;;;;;;3.37;0.87;;;15.60;1.00;;;;;;5064045;28;20198;-55
2022/05/30 18:05:15;;;;;;;1.37;0.90;;;15.60;1.00;;;;;;5068380;28;20594;-55
2022/05/30 18:08:03;;;;;;;2.87;1.20;;;15.80;1.00;;;;;;5065530;28;20267;-54
2022/05/30 18:10:45;;;;;;;3.93;0.80;;;15.60;1.00;;;;;;5064384;28;20344;-55
2022/05/30 18:13:39;;;;;;;2.83;0.97;;;15.60;1.00;;;;;;5067537;28;20233;-55
2022/05/30 18:16:33;;;;;;;3.10;1.10;;;15.60;1.00;;;;;;5065263;28;20664;-55
2022/05/30 18:19:36;;;;;;;3.13;0.97;;;15.70;1.00;;;;;;5069875;28;20228;-56
2022/05/30 18:22:15;;;;;;;4.17;1.00;;;15.70;1.00;;;;;;5065336;28;20252;-58
2022/05/30 18:24:52;;;;;;;4.03;1.10;;;15.70;1.00;;;;;;5067203;28;20478;-55
2022/05/30 18:27:19;;;;;;;4.40;1.83;;;15.80;1.00;;;;;;5062993;28;20328;-56
2022/05/30 18:29:46;;;;;;;3.37;0.80;;;15.80;1.00;;;;;;5064083;28;20445;-55
2022/05/30 18:32:41;;;;;;;1.17;0.80;;;15.80;1.00;;;;;;5058839;28;20644;-56
2022/05/30 18:35:37;;;;;;;0.83;0.70;;;15.70;1.00;;;;;;5065401;28;20267;-55
2022/05/30 18:38:32;;;;;;;1.67;0.87;;;15.70;1.00;;;;;;5033799;28;20749;-55
2022/05/30 18:41:07;;;;;;;4.60;1.00;;;15.80;1.00;;;;;;5066042;28;20676;-55
2022/05/30 18:43:43;;;;;;;3.37;0.97;;;15.80;1.00;;;;;;5070772;28;20218;-54
2022/05/30 18:46:20;;;;;;;3.77;1.07;;;15.90;1.00;;;;;;5067116;28;20243;-55
2022/05/30 18:48:53;;;;;;;2.17;0.90;;;15.70;1.00;;;;;;5067910;28;20703;-55
2022/05/30 18:51:20;;;;;;;4.10;1.10;;;15.60;1.00;;;;;;5066829;28;20221;-55
2022/05/30 18:53:47;;;;;;;3.77;1.00;;;15.60;1.00;;;;;;5069956;28;20677;-55
2022/05/30 18:56:31;;;;;;;4.00;1.10;;;15.70;1.00;;;;;;5064723;28;20644;-55
2022/05/30 18:59:16;;;;;;;2.67;1.20;;;15.60;1.00;;;;;;5067354;28;20345;-55
2022/05/30 19:01:45;;;;;;;5.77;1.03;;;15.70;1.00;;;;;;5066600;28;20204;-55
2022/05/30 19:04:12;;;;;;;1.97;0.83;;;15.70;1.00;;;;;;5074225;28;20582;-56
2022/05/30 19:06:40;;;;;;;3.47;1.00;;;15.70;1.00;;;;;;5069443;28;20196;-55
2022/05/30 19:09:09;;;;;;;3.60;0.80;;;15.60;1.00;;;;;;5067654;28;20311;-55
2022/05/30 19:11:48;;;;;;;3.73;1.20;;;15.40;1.00;;;;;;5070757;28;20211;-55
2022/05/30 19:14:31;;;;;;;3.97;1.20;;;15.40;1.00;;;;;;5065622;28;20730;-54
2022/05/30 19:20:06;;;;;;;5.43;1.37;;;15.40;1.00;;;;;;5065887;28;20311;-56
2022/05/30 19:22:38;;;;;;;3.37;1.30;;;15.40;1.00;;;;;;5071457;28;20221;-54
2022/05/30 19:25:09;;;;;;;3.97;1.27;;;15.50;1.00;;;;;;5073239;28;20692;-54
2022/05/30 19:27:37;;;;;;;2.57;1.30;;;15.40;1.00;;;;;;5075073;28;20299;-55
2022/05/30 19:30:07;;;;;;;1.90;0.90;;;15.40;1.00;;;;;;5070589;28;20233;-56
2022/05/30 19:32:35;;;;;;;3.47;1.13;;;15.40;1.00;;;;;;5071216;28;20626;-55
2022/05/30 19:35:02;;;;;;;3.50;1.10;;;15.40;1.00;;;;;;5069639;28;20320;-55
2022/05/30 19:37:29;;;;;;;3.03;1.17;;;15.30;1.00;;;;;;5073181;28;20260;-55
2022/05/30 19:39:56;;;;;;;2.73;0.97;;;15.30;1.00;;;;;;5076481;28;20227;-55
2022/05/30 19:42:23;;;;;;;2.03;1.00;;;15.30;1.00;;;;;;5075797;28;20199;-55
2022/05/30 19:44:51;;;;;;;3.00;1.10;;;15.20;1.00;;;;;;5073739;28;20229;-55
2022/05/30 19:47:20;;;;;;;2.53;1.23;;;15.00;1.00;;;;;;5073461;28;20288;-54
2022/05/30 19:49:49;;;;;;;4.33;1.17;;;15.00;1.00;;;;;;5075442;28;20200;-55
2022/05/30 19:52:22;;;;;;;2.27;1.00;;;14.90;1.00;;;;;;5071308;28;20710;-55